This is the latest recevied weather packets stored in our database for station/object AF1E. If no packets are shown the sender has not sent any weather packets the latest 10 day(s).
| Time | Temp. | Humidity | Pressure | Rain* | Wind** | Luminosity | Snow |
|---|---|---|---|---|---|---|---|
| 1777163737 | 16.11° C | 93% | 1008.7 hPa | 1.78 mm | - | - | - |
| 1777154716 | 16.67° C | 92% | 1009 hPa | 4.06 mm | - | - | - |
| 1777153517 | 16.67° C | 91% | 1008.9 hPa | 7.11 mm | - | - | - |
| 1777145716 | 23.89° C | 65% | 1007 hPa | 1.02 mm | - | - | - |
| 1777144516 | 26.67° C | 42% | 1006.7 hPa | 0 mm | - | - | - |
| 1777143916 | 27.22° C | 40% | 1006.7 hPa | 0 mm | - | - | - |
| 1777137316 | 27.78° C | 41% | 1007.4 hPa | 0 mm | - | - | - |
| 1777133116 | 27.78° C | 43% | 1008 hPa | 0 mm | - | - | - |
| 1777130716 | 27.22° C | 43% | 1008.4 hPa | 0 mm | - | - | - |
| 1777125916 | 20.56° C | 68% | 1008.7 hPa | 0 mm | - | - | - |
| 1777125316 | 20° C | 67% | 1008.7 hPa | 0 mm | - | - | - |
| 1777123516 | 18.33° C | 72% | 1008.7 hPa | 0 mm | - | - | - |
| 1777119916 | 15° C | 82% | 1008.9 hPa | 0 mm | - | - | - |
| 1777118716 | 13.33° C | 87% | 1008.7 hPa | 0 mm | - | - | - |
| 1777118116 | 12.78° C | 89% | 1008.8 hPa | 0 mm | - | - | - |
| 1777115116 | 11.11° C | 90% | 1008.2 hPa | 0 mm | - | - | - |
| 1777114515 | 11.11° C | 90% | 1008 hPa | 0 mm | - | - | - |
| 1777113918 | 11.11° C | 91% | 1008 hPa | 0 mm | - | - | - |
| 1777109717 | 11.67° C | 88% | 1007.7 hPa | 0 mm | - | - | - |
| 1777108518 | 12.22° C | 90% | 1007.6 hPa | 0 mm | - | - | - |
| 1777107917 | 11.67° C | 88% | 1007.8 hPa | 0 mm | - | - | - |
| 1777106717 | 12.22° C | 88% | 1008 hPa | 0 mm | - | - | - |
| 1777104937 | 12.22° C | 87% | 1007.9 hPa | 0 mm | - | - | - |
| 1777102518 | 12.78° C | 85% | 1007.8 hPa | 0 mm | - | - | - |
| 1777093517 | 15.56° C | 75% | 1008.4 hPa | 0 mm | - | - | - |
* Rain latest hour (hover to see other rain measurements)
** Current wind speed in m/s (hover to see current wind gust speed)